Time;durP1;ratioP1;P1;durP2;ratioP2;P2;SDS_P1;SDS_P2;PMS_P1;PMS_P2;Temp;Humidity;BMP_temperature;BMP_pressure;BME280_temperature;BME280_humidity;BME280_pressure;Samples;Min_cycle;Max_cycle;Signal;HPM_P1;HPM_P2
2022/01/23 00:00:16;;;;;;;;;36.25;32.50;;;;;8.60;100.00;103327.25;5038272;28;45273;-77
2022/01/23 00:02:42;;;;;;;;;33.00;31.75;;;;;8.56;100.00;103320.00;5019618;28;45650;-77
2022/01/23 00:05:08;;;;;;;;;36.25;28.50;;;;;8.55;100.00;103323.38;5038314;28;46105;-79
2022/01/23 00:07:35;;;;;;;;;36.50;33.50;;;;;8.58;100.00;103327.91;5037793;28;45272;-79
2022/01/23 00:10:02;;;;;;;;;35.50;29.75;;;;;8.58;100.00;103322.72;5038173;28;45302;-77
2022/01/23 00:12:32;;;;;;;;;36.25;32.50;;;;;8.56;100.00;103325.19;5038214;28;45251;-78
2022/01/23 00:17:41;;;;;;;;;36.00;33.00;;;;;8.55;100.00;103318.19;5039058;28;45814;-77
2022/01/23 00:20:11;;;;;;;;;39.25;32.00;;;;;8.54;100.00;103323.19;5019789;28;45420;-78
2022/01/23 00:22:50;;;;;;;;;39.00;33.75;;;;;8.55;100.00;103315.63;5038106;28;45343;-78
2022/01/23 00:30:46;;;;;;;;;38.75;32.25;;;;;8.56;100.00;103308.75;5037504;28;45381;-77
2022/01/23 00:33:13;;;;;;;;;35.00;26.75;;;;;8.58;100.00;103303.00;5020275;28;45369;-79
2022/01/23 00:35:41;;;;;;;;;39.50;33.50;;;;;8.60;100.00;103297.97;5036897;28;45545;-78
2022/01/23 00:38:09;;;;;;;;;32.00;28.50;;;;;8.59;100.00;103304.78;5037877;28;45848;-78
2022/01/23 00:40:36;;;;;;;;;36.50;33.00;;;;;8.57;100.00;103305.41;5038669;28;45430;-78
2022/01/23 00:43:13;;;;;;;;;37.00;27.50;;;;;8.55;100.00;103294.97;5040205;28;45494;-78
2022/01/23 00:45:44;;;;;;;;;36.00;27.50;;;;;8.52;100.00;103295.59;5038700;28;45563;-76
2022/01/23 00:48:11;;;;;;;;;37.25;29.75;;;;;8.50;100.00;103294.53;5037725;28;45355;-79
2022/01/23 00:50:43;;;;;;;;;34.00;29.00;;;;;8.52;100.00;103286.91;5037530;28;45356;-78
2022/01/23 00:53:11;;;;;;;;;27.25;25.75;;;;;8.52;100.00;103297.25;5038111;28;45281;-79
2022/01/23 00:55:38;;;;;;;;;31.75;26.50;;;;;8.51;100.00;103300.59;5037029;28;45415;-79
2022/01/23 00:58:05;;;;;;;;;31.25;26.50;;;;;8.50;100.00;103294.53;5037334;28;45534;-78
2022/01/23 01:00:31;;;;;;;;;32.25;27.75;;;;;8.46;100.00;103289.81;5037162;28;45257;-79
2022/01/23 01:02:58;;;;;;;;;32.75;26.75;;;;;8.47;100.00;103285.56;5037723;28;45560;-78
2022/01/23 01:05:27;;;;;;;;;30.00;25.00;;;;;8.44;100.00;103286.16;5037068;28;46301;-78
2022/01/23 01:07:57;;;;;;;;;32.00;28.25;;;;;8.40;100.00;103280.56;5037373;28;45427;-79
2022/01/23 01:10:32;;;;;;;;;31.50;25.50;;;;;8.40;100.00;103286.66;5021641;28;45302;-78
2022/01/23 01:13:00;;;;;;;;;32.50;26.50;;;;;8.37;100.00;103287.25;5037858;28;45435;-79
2022/01/23 01:15:38;;;;;;;;;38.50;32.25;;;;;8.35;100.00;103280.13;5036644;28;46213;-78
2022/01/23 01:31:39;;;;;;;;;30.75;27.50;;;;;8.43;100.00;103280.88;5035917;28;45359;-77
2022/01/23 01:34:11;;;;;;;;;29.50;25.00;;;;;8.45;100.00;103281.91;5035820;28;45348;-78
2022/01/23 01:36:49;;;;;;;;;35.75;30.00;;;;;8.43;100.00;103280.88;5035181;28;45473;-79
2022/01/23 01:39:18;;;;;;;;;34.00;28.75;;;;;8.44;100.00;103283.56;5037610;28;45958;-78
2022/01/23 01:41:45;;;;;;;;;39.25;32.50;;;;;8.43;100.00;103284.34;5018960;28;45492;-78
2022/01/23 01:44:11;;;;;;;;;33.25;26.75;;;;;8.45;100.00;103276.75;5018075;28;45365;-78
2022/01/23 01:46:37;;;;;;;;;39.25;30.25;;;;;8.46;100.00;103281.16;5034537;28;46021;-79
2022/01/23 01:49:03;;;;;;;;;34.25;29.00;;;;;8.46;100.00;103282.06;5035486;28;45350;-77
2022/01/23 01:51:32;;;;;;;;;30.50;25.50;;;;;8.48;100.00;103279.63;5035271;28;45380;-78
2022/01/23 01:54:06;;;;;;;;;36.00;30.00;;;;;8.46;100.00;103276.88;5034324;28;45568;-78
2022/01/23 01:56:40;;;;;;;;;37.00;30.00;;;;;8.44;100.00;103278.41;5034942;28;46539;-79
2022/01/23 02:09:21;;;;;;;;;41.00;33.00;;;;;8.50;100.00;103272.94;5037978;28;45301;-78
2022/01/23 02:12:18;;;;;;;;;34.00;28.25;;;;;8.51;100.00;103275.69;5035668;28;45497;-79
2022/01/23 02:15:12;;;;;;;;;34.50;31.25;;;;;8.51;100.00;103273.13;5034622;28;45718;-79
2022/01/23 02:55:46;;;;;;;;;29.75;27.75;;;;;8.51;100.00;103233.47;5035961;28;45340;-79
2022/01/23 02:58:14;;;;;;;;;26.50;22.75;;;;;8.51;100.00;103229.22;5034960;28;45410;-79
2022/01/23 03:01:04;;;;;;;;;31.50;26.75;;;;;8.50;100.00;103224.81;5033871;28;46877;-79
2022/01/23 03:03:30;;;;;;;;;33.75;26.25;;;;;8.52;100.00;103225.88;5037522;28;45777;-78
2022/01/23 03:11:45;;;;;;;;;29.00;26.25;;;;;8.55;100.00;103229.47;5035690;28;45366;-79
2022/01/23 03:25:53;;;;;;;;;26.50;23.75;;;;;8.52;100.00;103212.03;5034862;28;45347;-79
2022/01/23 03:28:20;;;;;;;;;32.00;27.00;;;;;8.50;100.00;103210.97;5015739;28;45540;-79
2022/01/23 03:31:05;;;;;;;;;30.25;24.00;;;;;8.46;100.00;103209.75;5018056;28;45199;-77
2022/01/23 03:33:36;;;;;;;;;40.75;27.50;;;;;8.48;100.00;103208.28;5016988;28;45352;-79
2022/01/23 03:36:03;;;;;;;;;34.75;27.50;;;;;8.46;100.00;103203.72;5015341;28;45472;-77
2022/01/23 03:38:28;;;;;;;;;23.50;18.25;;;;;8.47;100.00;103201.28;5015180;28;45452;-79
2022/01/23 03:40:54;;;;;;;;;34.50;29.50;;;;;8.46;100.00;103214.94;5015705;28;45515;-78
2022/01/23 03:43:27;;;;;;;;;42.00;27.00;;;;;8.44;100.00;103212.97;5015597;28;45270;-79
2022/01/23 03:51:12;;;;;;;;;28.50;25.00;;;;;8.44;100.00;103200.97;5015581;28;45684;-79
2022/01/23 03:53:38;;;;;;;;;29.50;25.75;;;;;8.44;100.00;103203.53;5030203;28;46110;-79
2022/01/23 03:56:05;;;;;;;;;31.25;24.75;;;;;8.43;100.00;103208.59;5035041;28;45319;-79
2022/01/23 03:58:31;;;;;;;;;32.00;23.00;;;;;8.41;100.00;103202.38;5035035;28;45272;-79
2022/01/23 04:00:57;;;;;;;;;29.75;22.25;;;;;8.40;100.00;103200.53;5036228;28;45566;-79
2022/01/23 04:03:23;;;;;;;;;28.50;24.00;;;;;8.39;100.00;103202.22;5036070;28;45495;-79
2022/01/23 04:05:50;;;;;;;;;20.75;16.25;;;;;8.40;100.00;103198.88;5017597;28;45295;-78
2022/01/23 04:08:20;;;;;;;;;27.50;23.25;;;;;8.39;100.00;103198.72;5035315;28;45445;-79
2022/01/23 04:10:46;;;;;;;;;21.50;15.25;;;;;8.37;100.00;103189.16;5020119;28;45447;-77
2022/01/23 04:13:21;;;;;;;;;26.75;19.50;;;;;8.38;100.00;103184.94;5038196;28;45225;-78
2022/01/23 04:16:09;;;;;;;;;24.00;21.50;;;;;8.39;100.00;103194.50;5038733;28;45256;-78
2022/01/23 04:32:43;;;;;;;;;29.50;21.75;;;;;8.26;100.00;103197.59;4996777;28;45316;-78
2022/01/23 04:35:39;;;;;;;;;26.25;22.75;;;;;8.23;100.00;103197.31;5026767;28;45278;-77
2022/01/23 04:46:34;;;;;;;;;24.00;17.00;;;;;8.27;100.00;103199.41;5037552;28;45386;-79
2022/01/23 04:59:53;;;;;;;;;31.75;22.00;;;;;8.47;100.00;103201.28;5040665;28;45748;-85
2022/01/23 05:04:46;;;;;;;;;28.50;23.75;;;;;8.51;100.00;103205.06;5040542;28;45517;-82
2022/01/23 05:07:15;;;;;;;;;24.75;21.75;;;;;8.49;100.00;103202.34;5038246;28;45927;-84
2022/01/23 05:09:40;;;;;;;;;34.00;27.75;;;;;8.48;100.00;103210.84;5040912;28;45958;-85
2022/01/23 05:12:10;;;;;;;;;28.50;21.00;;;;;8.49;100.00;103196.25;5038934;28;45374;-85
2022/01/23 05:14:41;;;;;;;;;32.00;23.25;;;;;8.46;100.00;103199.44;5022583;28;45254;-84
2022/01/23 05:17:11;;;;;;;;;29.25;24.50;;;;;8.43;100.00;103199.16;5031766;28;46182;-80
2022/01/23 05:19:38;;;;;;;;;21.50;21.50;;;;;8.42;100.00;103201.59;5027054;28;45258;-85
2022/01/23 05:24:57;;;;;;;;;32.00;28.25;;;;;8.44;100.00;103210.41;5041601;28;44652;-85
2022/01/23 05:27:26;;;;;;;;;29.50;24.00;;;;;8.43;100.00;103203.41;5041796;28;46161;-84
2022/01/23 05:29:54;;;;;;;;;22.50;20.75;;;;;8.45;100.00;103213.09;5024383;28;45984;-82
2022/01/23 05:32:21;;;;;;;;;28.25;25.75;;;;;8.45;100.00;103214.81;5046935;28;44793;-84
2022/01/23 05:34:47;;;;;;;;;36.25;26.00;;;;;8.45;100.00;103209.63;5040372;28;45257;-85
2022/01/23 05:37:13;;;;;;;;;26.00;23.00;;;;;8.46;100.00;103209.75;5038538;28;45286;-86
2022/01/23 05:39:39;;;;;;;;;24.00;19.75;;;;;8.45;100.00;103212.22;5018520;28;45340;-84
2022/01/23 05:42:09;;;;;;;;;33.00;26.00;;;;;8.43;100.00;103203.41;5035592;28;45537;-84
2022/01/23 05:44:39;;;;;;;;;27.50;24.75;;;;;8.43;100.00;103211.16;5036863;28;45474;-84
2022/01/23 05:47:06;;;;;;;;;34.00;28.75;;;;;8.40;100.00;103206.63;5018956;28;46290;-84
2022/01/23 05:49:33;;;;;;;;;30.25;23.25;;;;;8.39;100.00;103207.41;5018825;28;45450;-84
2022/01/23 05:52:00;;;;;;;;;28.25;27.00;;;;;8.38;100.00;103200.41;5039077;28;45379;-80
2022/01/23 05:54:26;;;;;;;;;34.00;28.00;;;;;8.35;100.00;103213.03;5041532;28;45248;-82
2022/01/23 05:56:51;;;;;;;;;35.50;28.25;;;;;8.29;100.00;103208.19;5037797;28;45505;-81
2022/01/23 05:59:17;;;;;;;;;25.25;22.75;;;;;8.28;100.00;103206.38;5037047;28;45264;-84
2022/01/23 06:01:46;;;;;;;;;38.75;29.50;;;;;8.27;100.00;103214.00;5036479;28;45449;-84
2022/01/23 06:04:12;;;;;;;;;33.75;26.50;;;;;8.25;100.00;103211.28;5037501;28;45643;-85
2022/01/23 06:06:37;;;;;;;;;31.75;26.00;;;;;8.28;100.00;103211.53;5036381;28;45449;-84
2022/01/23 06:09:03;;;;;;;;;34.75;28.00;;;;;8.30;100.00;103217.75;5018771;28;45423;-83
2022/01/23 06:11:29;;;;;;;;;29.25;25.00;;;;;8.29;100.00;103218.53;5036077;28;45534;-84
2022/01/23 06:13:54;;;;;;;;;32.50;25.75;;;;;8.26;100.00;103213.06;5037080;28;45410;-85
2022/01/23 06:16:20;;;;;;;;;32.25;24.75;;;;;8.27;100.00;103211.41;5036836;28;45336;-82
2022/01/23 06:18:46;;;;;;;;;29.25;25.25;;;;;8.26;100.00;103210.50;5037569;28;45335;-83
2022/01/23 06:21:17;;;;;;;;;27.25;19.00;;;;;8.26;100.00;103222.50;5038475;28;45249;-82
2022/01/23 06:23:43;;;;;;;;;21.75;18.75;;;;;8.21;100.00;103216.91;5040679;28;45401;-83
2022/01/23 06:26:09;;;;;;;;;29.25;24.75;;;;;8.21;100.00;103214.34;5038056;28;46048;-85
2022/01/23 06:28:43;;;;;;;;;26.75;23.25;;;;;8.20;100.00;103208.28;5038469;28;45462;-85
2022/01/23 06:31:08;;;;;;;;;33.25;23.75;;;;;8.20;100.00;103207.34;5037118;28;45427;-85
2022/01/23 06:33:35;;;;;;;;;30.75;24.75;;;;;8.21;100.00;103207.47;5037154;28;45480;-84
2022/01/23 06:36:02;;;;;;;;;28.50;23.25;;;;;8.21;100.00;103211.75;5037263;28;45468;-89
2022/01/23 06:38:28;;;;;;;;;26.50;23.25;;;;;8.19;100.00;103215.84;5019830;28;45333;-88
2022/01/23 06:40:53;;;;;;;;;27.00;23.00;;;;;8.18;100.00;103221.78;5037215;28;45346;-78
2022/01/23 06:43:19;;;;;;;;;26.25;19.75;;;;;8.16;100.00;103223.31;5018425;28;45446;-76
2022/01/23 06:45:45;;;;;;;;;21.00;18.25;;;;;8.15;100.00;103217.25;5035213;28;45621;-86
2022/01/23 06:48:11;;;;;;;;;18.50;15.50;;;;;8.12;100.00;103219.53;5038621;28;45655;-87
2022/01/23 06:50:36;;;;;;;;;16.75;15.00;;;;;8.11;100.00;103206.50;5037786;28;45437;-79
2022/01/23 06:53:02;;;;;;;;;18.50;15.50;;;;;8.10;100.00;103209.84;5040324;28;45399;-83
2022/01/23 06:55:28;;;;;;;;;23.50;18.00;;;;;8.09;100.00;103220.91;5024807;28;45469;-84
2022/01/23 06:57:53;;;;;;;;;22.75;18.75;;;;;8.09;100.00;103219.28;5036254;28;45482;-85
2022/01/23 07:00:19;;;;;;;;;20.00;16.75;;;;;8.10;100.00;103222.75;5037077;28;45335;-83
2022/01/23 07:02:45;;;;;;;;;29.00;19.25;;;;;8.09;100.00;103233.81;5040996;28;45522;-83
2022/01/23 07:05:10;;;;;;;;;27.50;20.50;;;;;8.08;100.00;103222.59;5019107;28;47833;-78
2022/01/23 07:07:36;;;;;;;;;16.75;12.50;;;;;8.06;100.00;103229.28;5017850;28;45324;-80
2022/01/23 07:10:02;;;;;;;;;19.00;16.00;;;;;8.06;100.00;103221.56;5037521;28;45235;-81
2022/01/23 07:12:28;;;;;;;;;21.50;17.75;;;;;8.02;100.00;103225.53;5036477;28;45494;-82
2022/01/23 07:14:53;;;;;;;;;19.00;17.00;;;;;8.01;100.00;103234.03;5035946;28;45767;-83
2022/01/23 07:17:19;;;;;;;;;22.00;16.25;;;;;7.98;100.00;103228.56;5039844;28;45244;-84
2022/01/23 07:19:44;;;;;;;;;19.00;14.75;;;;;8.00;100.00;103227.03;5040876;28;45285;-83
2022/01/23 07:22:10;;;;;;;;;26.50;17.75;;;;;7.99;100.00;103222.63;5021782;28;45249;-84
2022/01/23 07:24:36;;;;;;;;;17.00;16.50;;;;;8.02;100.00;103235.84;5038127;28;46037;-85
2022/01/23 07:27:11;;;;;;;;;21.50;18.25;;;;;8.06;100.00;103230.19;5036641;28;45489;-80
2022/01/23 07:29:37;;;;;;;;;24.00;17.00;;;;;8.06;100.00;103229.28;5038662;28;45370;-83
2022/01/23 07:32:08;;;;;;;;;25.25;23.25;;;;;8.08;100.00;103230.34;5033648;28;45495;-83
2022/01/23 07:34:33;;;;;;;;;17.00;16.25;;;;;8.07;100.00;103233.69;5025530;28;46483;-82
2022/01/23 07:36:59;;;;;;;;;31.25;22.00;;;;;8.07;100.00;103233.69;5033585;28;45331;-84
2022/01/23 07:39:25;;;;;;;;;23.25;15.75;;;;;8.10;100.00;103227.91;5028887;28;45274;-78
2022/01/23 07:41:51;;;;;;;;;17.50;16.25;;;;;8.13;100.00;103228.19;5038010;28;45780;-81
2022/01/23 07:44:16;;;;;;;;;23.75;19.75;;;;;8.13;100.00;103230.78;5011509;28;46508;-80
2022/01/23 07:46:42;;;;;;;;;18.75;17.00;;;;;8.11;100.00;103219.41;5006343;28;45510;-79
2022/01/23 07:49:09;;;;;;;;;12.50;12.00;;;;;8.06;100.00;103216.38;5021436;28;45427;-79
2022/01/23 07:51:35;;;;;;;;;19.50;16.00;;;;;8.03;100.00;103216.09;5022173;28;45487;-81
2022/01/23 07:54:01;;;;;;;;;16.25;15.50;;;;;8.03;100.00;103214.44;5025182;28;45317;-79
2022/01/23 07:56:26;;;;;;;;;26.50;19.50;;;;;8.03;100.00;103217.03;5032001;28;45554;-84
2022/01/23 07:58:52;;;;;;;;;22.25;19.00;;;;;8.04;100.00;103223.97;5022582;28;45306;-83
2022/01/23 08:01:18;;;;;;;;;21.75;16.75;;;;;8.04;100.00;103233.41;5041693;28;45165;-81
2022/01/23 08:03:44;;;;;;;;;20.75;18.75;;;;;8.04;100.00;103241.13;5029817;28;46071;-80
2022/01/23 08:06:12;;;;;;;;;20.50;17.25;;;;;8.03;100.00;103244.47;5027484;28;45339;-81
2022/01/23 08:08:38;;;;;;;;;19.00;17.00;;;;;8.06;100.00;103247.34;5006731;28;45534;-77
2022/01/23 08:11:04;;;;;;;;;19.50;17.25;;;;;8.03;100.00;103250.56;5035693;28;45364;-77
2022/01/23 08:13:30;;;;;;;;;22.75;18.25;;;;;8.02;100.00;103256.47;5039547;28;46258;-78
2022/01/23 08:15:55;;;;;;;;;17.00;14.25;;;;;8.00;100.00;103251.91;5023390;28;45351;-76
2022/01/23 08:18:21;;;;;;;;;14.25;11.00;;;;;8.00;100.00;103249.34;5030816;28;45212;-79
2022/01/23 08:20:47;;;;;;;;;16.75;12.75;;;;;8.02;100.00;103261.63;5022793;28;45178;-78
2022/01/23 08:23:13;;;;;;;;;16.50;14.75;;;;;8.00;100.00;103252.84;5018289;28;45959;-80
2022/01/23 08:25:39;;;;;;;;;16.50;10.00;;;;;8.01;100.00;103257.25;5018083;28;46135;-79
2022/01/23 08:28:07;;;;;;;;;18.75;14.75;;;;;7.97;100.00;103254.22;5001173;28;45284;-80
2022/01/23 08:30:34;;;;;;;;;21.75;17.00;;;;;7.95;100.00;103259.22;5019428;28;45443;-83
2022/01/23 08:32:59;;;;;;;;;21.00;17.00;;;;;7.97;100.00;103260.28;5023061;28;45562;-80
2022/01/23 08:35:26;;;;;;;;;21.00;16.75;;;;;7.99;100.00;103268.19;5025081;28;45432;-83
2022/01/23 08:37:52;;;;;;;;;16.75;15.25;;;;;7.95;100.00;103266.94;5033842;28;45295;-79
2022/01/23 08:40:23;;;;;;;;;16.00;12.25;;;;;7.88;100.00;103268.03;5016128;28;45314;-80
2022/01/23 08:42:51;;;;;;;;;20.75;17.00;;;;;7.87;100.00;103268.81;5026589;28;46732;-84
2022/01/23 08:45:18;;;;;;;;;27.50;17.25;;;;;7.88;100.00;103267.16;5027428;28;45456;-78
2022/01/23 08:47:43;;;;;;;;;17.50;15.50;;;;;7.93;100.00;103265.00;5028131;28;45540;-77
2022/01/23 08:50:09;;;;;;;;;23.00;20.00;;;;;7.94;100.00;103259.97;5023901;28;45529;-77
2022/01/23 08:52:35;;;;;;;;;21.75;17.25;;;;;7.95;100.00;103266.06;5025289;28;46166;-79
2022/01/23 08:55:01;;;;;;;;;22.25;21.00;;;;;7.96;100.00;103261.03;5027733;28;45762;-77
2022/01/23 08:57:27;;;;;;;;;23.75;19.75;;;;;7.97;100.00;103259.38;5037100;28;45412;-78
2022/01/23 08:59:53;;;;;;;;;24.50;21.25;;;;;7.98;100.00;103262.09;5020310;28;45710;-80
2022/01/23 09:02:19;;;;;;;;;22.75;20.00;;;;;8.00;100.00;103268.31;5033416;28;46061;-80
2022/01/23 09:04:45;;;;;;;;;23.50;20.75;;;;;7.97;100.00;103262.84;5020797;28;45457;-78
2022/01/23 09:07:12;;;;;;;;;27.25;22.75;;;;;7.95;100.00;103261.78;5020076;28;45584;-80
2022/01/23 09:09:39;;;;;;;;;21.25;20.25;;;;;7.98;100.00;103271.53;5033596;28;45579;-86
2022/01/23 09:12:21;;;;;;;;;26.50;20.75;;;;;7.98;100.00;103264.69;5035313;28;45264;-80
2022/01/23 09:14:47;;;;;;;;;23.75;21.25;;;;;7.99;100.00;103275.94;5037764;28;45455;-79
2022/01/23 09:17:12;;;;;;;;;27.00;22.50;;;;;7.98;100.00;103277.56;5024936;28;45215;-81
2022/01/23 09:19:39;;;;;;;;;24.75;22.50;;;;;8.01;100.00;103267.56;5017026;28;45451;-78
2022/01/23 09:22:05;;;;;;;;;28.50;21.25;;;;;8.01;100.00;103270.13;5016860;28;46155;-78
2022/01/23 09:24:31;;;;;;;;;22.75;21.75;;;;;8.00;100.00;103260.56;5029439;28;45433;-79
2022/01/23 09:27:07;;;;;;;;;28.75;25.00;;;;;8.06;100.00;103268.88;5036714;28;45394;-79
2022/01/23 09:29:40;;;;;;;;;30.50;25.50;;;;;8.10;100.00;103271.75;5018859;28;45477;-79
2022/01/23 09:32:11;;;;;;;;;27.25;25.00;;;;;8.10;100.00;103253.69;5036761;28;45772;-78
2022/01/23 09:34:37;;;;;;;;;32.00;26.00;;;;;8.12;100.00;103267.66;5037299;28;45820;-78
2022/01/23 09:37:05;;;;;;;;;27.00;23.75;;;;;8.15;100.00;103265.38;5021025;28;45308;-77
2022/01/23 09:39:32;;;;;;;;;30.25;24.50;;;;;8.12;100.00;103265.09;5036822;28;45406;-78
2022/01/23 09:42:17;;;;;;;;;31.00;24.75;;;;;8.09;100.00;103267.38;5018568;28;47012;-80
2022/01/23 09:44:57;;;;;;;;;35.00;26.50;;;;;8.08;100.00;103274.22;5036120;28;46073;-79
2022/01/23 09:47:23;;;;;;;;;35.00;27.25;;;;;8.09;100.00;103268.28;5036240;28;45261;-78
2022/01/23 09:49:54;;;;;;;;;30.25;28.50;;;;;8.06;100.00;103275.72;5018991;28;45394;-78
2022/01/23 09:52:21;;;;;;;;;29.00;25.50;;;;;8.05;100.00;103271.34;5018739;28;46803;-79
2022/01/23 09:54:59;;;;;;;;;27.50;21.25;;;;;8.03;100.00;103262.53;5036388;28;45281;-78
2022/01/23 09:57:30;;;;;;;;;21.75;19.75;;;;;8.01;100.00;103269.22;5035419;28;45245;-77
2022/01/23 09:59:58;;;;;;;;;29.50;24.50;;;;;8.02;100.00;103260.72;5039447;28;45207;-78
2022/01/23 10:02:24;;;;;;;;;35.00;29.50;;;;;8.03;100.00;103273.78;5039499;28;46054;-78
2022/01/23 10:04:51;;;;;;;;;30.75;25.75;;;;;8.04;100.00;103274.66;5037023;28;45312;-78
2022/01/23 10:07:18;;;;;;;;;32.50;25.00;;;;;8.05;100.00;103271.34;5036456;28;45339;-79
2022/01/23 10:09:46;;;;;;;;;31.25;27.25;;;;;8.03;100.00;103266.03;5018082;28;46214;-79
2022/01/23 10:12:12;;;;;;;;;29.00;23.75;;;;;8.07;100.00;103267.22;5035889;28;45869;-78
2022/01/23 10:14:38;;;;;;;;;27.75;22.75;;;;;8.10;100.00;103270.06;5036196;28;45272;-79
2022/01/23 10:17:07;;;;;;;;;27.25;25.25;;;;;8.09;100.00;103270.88;5018021;28;45273;-80
2022/01/23 10:19:33;;;;;;;;;21.75;21.75;;;;;8.12;100.00;103276.31;5031886;28;45470;-78
2022/01/23 10:22:00;;;;;;;;;28.75;22.75;;;;;8.11;100.00;103271.00;5015875;28;45416;-78
2022/01/23 10:24:28;;;;;;;;;19.75;16.50;;;;;8.06;100.00;103280.88;5015737;28;45881;-80
2022/01/23 10:26:58;;;;;;;;;24.50;21.25;;;;;8.04;100.00;103285.88;5017242;28;45240;-79
2022/01/23 10:29:32;;;;;;;;;22.50;19.25;;;;;8.01;100.00;103271.78;5001164;28;45552;-79
2022/01/23 10:32:05;;;;;;;;;24.00;22.25;;;;;7.99;100.00;103284.56;5024416;28;45437;-80
2022/01/23 10:34:48;;;;;;;;;24.50;21.00;;;;;7.97;100.00;103275.75;5035251;28;45423;-80
2022/01/23 10:37:36;;;;;;;;;25.50;23.00;;;;;7.99;100.00;103275.94;5035093;28;45353;-79
2022/01/23 10:40:11;;;;;;;;;21.25;15.25;;;;;7.96;100.00;103280.78;5035382;28;45366;-79
2022/01/23 10:48:12;;;;;;;;;21.50;16.00;;;;;8.02;100.00;103269.38;5046118;28;45357;-79
2022/01/23 10:50:38;;;;;;;;;24.25;16.75;;;;;8.03;100.00;103268.63;5035344;28;45229;-78
2022/01/23 10:53:03;;;;;;;;;19.75;18.25;;;;;8.06;100.00;103268.88;5035048;28;46137;-80
2022/01/23 10:55:32;;;;;;;;;25.50;19.75;;;;;8.04;100.00;103269.50;5038256;28;45295;-79
2022/01/23 10:58:01;;;;;;;;;24.75;18.50;;;;;8.03;100.00;103254.78;5041271;28;44770;-80
2022/01/23 11:00:32;;;;;;;;;18.50;15.25;;;;;8.03;100.00;103257.38;5045235;28;45216;-80
2022/01/23 11:03:11;;;;;;;;;23.25;20.00;;;;;8.01;100.00;103257.25;5038048;28;46125;-78
2022/01/23 11:05:39;;;;;;;;;19.00;17.25;;;;;8.01;100.00;103256.31;5001598;28;46060;-80
2022/01/23 11:08:28;;;;;;;;;28.25;21.75;;;;;7.98;100.00;103244.03;5035040;28;45220;-79
2022/01/23 11:10:56;;;;;;;;;21.50;19.75;;;;;8.04;100.00;103252.34;5035656;28;45829;-80
2022/01/23 11:19:25;;;;;;;;;20.00;16.50;;;;;8.09;100.00;103241.56;5035956;28;45178;-80
2022/01/23 11:21:53;;;;;;;;;25.25;24.00;;;;;8.08;100.00;103235.50;5039254;28;45588;-80
2022/01/23 11:24:20;;;;;;;;;34.75;23.25;;;;;8.05;100.00;103230.06;5042613;28;45525;-79
2022/01/23 11:26:46;;;;;;;;;21.50;21.00;;;;;8.08;100.00;103227.78;5040045;28;45354;-80
2022/01/23 11:29:17;;;;;;;;;26.25;19.75;;;;;8.07;100.00;103218.22;5039464;28;45312;-80
2022/01/23 11:31:44;;;;;;;;;29.75;24.50;;;;;8.05;100.00;103222.31;5038322;28;45565;-79
2022/01/23 11:34:13;;;;;;;;;27.25;22.25;;;;;8.04;100.00;103220.50;5020339;28;46958;-79
2022/01/23 11:36:39;;;;;;;;;27.00;21.75;;;;;8.02;100.00;103220.34;5038434;28;45397;-78
2022/01/23 11:39:17;;;;;;;;;21.75;17.50;;;;;8.00;100.00;103213.22;5038775;28;45266;-81
2022/01/23 11:50:49;;;;;;;;;23.50;18.75;;;;;7.99;100.00;103214.91;5040723;28;45458;-80
2022/01/23 11:56:31;;;;;;;;;22.25;19.75;;;;;7.95;100.00;103210.19;5032607;28;45447;-85
2022/01/23 11:59:09;;;;;;;;;17.00;14.75;;;;;7.94;100.00;103203.22;5024717;28;45972;-79
2022/01/23 12:01:36;;;;;;;;;22.50;19.75;;;;;7.94;100.00;103205.81;5024838;28;45343;-84
2022/01/23 12:04:14;;;;;;;;;22.75;20.75;;;;;7.94;100.00;103192.91;5025672;28;45341;-84
2022/01/23 12:06:42;;;;;;;;;22.25;18.25;;;;;7.96;100.00;103190.50;5039831;28;46156;-84
2022/01/23 12:09:17;;;;;;;;;23.25;19.25;;;;;7.99;100.00;103190.78;5004656;28;45516;-81
2022/01/23 12:12:22;;;;;;;;;27.00;20.50;;;;;7.95;100.00;103188.69;5038621;28;45236;-81
2022/01/23 12:18:12;;;;;;;;;20.75;19.75;;;;;7.95;100.00;103181.84;5029117;28;45767;-80
2022/01/23 12:20:38;;;;;;;;;19.25;15.75;;;;;7.97;100.00;103184.56;5034025;28;45433;-81
2022/01/23 12:23:04;;;;;;;;;17.00;15.50;;;;;7.97;100.00;103174.25;5029727;28;45450;-86
2022/01/23 12:25:40;;;;;;;;;23.50;20.50;;;;;8.02;100.00;103180.72;5029587;28;45324;-89
2022/01/23 12:28:32;;;;;;;;;21.75;17.25;;;;;8.01;100.00;103173.75;5022076;28;48037;-84
2022/01/23 12:31:26;;;;;;;;;18.75;18.25;;;;;8.00;100.00;103170.28;5042403;28;45810;-80
2022/01/23 12:33:57;;;;;;;;;15.50;14.25;;;;;7.95;100.00;103166.34;5043724;28;45302;-79
2022/01/23 12:36:40;;;;;;;;;18.00;15.25;;;;;7.96;100.00;103165.59;5023222;28;45519;-82
2022/01/23 12:39:06;;;;;;;;;17.50;13.00;;;;;7.99;100.00;103165.00;5011756;28;45605;-84
2022/01/23 12:41:50;;;;;;;;;22.00;16.75;;;;;7.98;100.00;103156.34;5036947;28;45383;-81
2022/01/23 12:44:22;;;;;;;;;23.25;16.25;;;;;8.04;100.00;103148.25;5030421;28;45407;-81
2022/01/23 12:47:03;;;;;;;;;21.75;14.75;;;;;8.05;100.00;103145.81;5036940;28;45538;-79
2022/01/23 12:49:31;;;;;;;;;24.75;20.25;;;;;8.06;100.00;103145.03;5007895;28;45442;-79
2022/01/23 12:52:05;;;;;;;;;19.50;17.00;;;;;8.08;100.00;103144.28;5022868;28;45446;-80
2022/01/23 12:54:36;;;;;;;;;11.50;11.50;;;;;8.11;100.00;103142.88;5025493;28;45286;-78
2022/01/23 12:57:10;;;;;;;;;21.00;15.75;;;;;8.16;100.00;103135.56;5003914;28;45734;-80
2022/01/23 12:59:37;;;;;;;;;27.75;25.25;;;;;8.20;100.00;103137.69;5040283;28;46023;-79
2022/01/23 13:02:10;;;;;;;;;27.75;24.00;;;;;8.13;100.00;103125.00;5036082;28;45501;-80
2022/01/23 13:04:45;;;;;;;;;26.25;21.50;;;;;8.10;100.00;103122.13;5019512;28;45929;-80
2022/01/23 13:07:26;;;;;;;;;19.50;11.50;;;;;8.09;100.00;103120.28;5034077;28;45470;-81
2022/01/23 13:10:02;;;;;;;;;23.75;18.00;;;;;8.10;100.00;103115.25;5026087;28;45524;-78
2022/01/23 13:12:46;;;;;;;;;22.25;19.25;;;;;8.13;100.00;103117.25;5032447;28;45883;-79
2022/01/23 13:31:58;;;;;;;;;26.50;21.25;;;;;8.32;100.00;103099.16;5011182;28;45548;-79
2022/01/23 13:34:40;;;;;;;;;25.00;21.00;;;;;8.35;100.00;103099.47;5008575;28;45872;-79
2022/01/23 13:37:06;;;;;;;;;30.00;22.50;;;;;8.36;100.00;103094.47;5006968;28;45522;-79
2022/01/23 13:39:40;;;;;;;;;28.00;24.50;;;;;8.35;100.00;103091.72;5027584;28;45331;-80
2022/01/23 13:59:28;;;;;;;;;22.25;21.50;;;;;8.26;100.00;103060.81;5037002;28;45427;-80
2022/01/23 14:02:10;;;;;;;;;28.50;25.75;;;;;8.29;100.00;103049.88;5036991;28;45437;-79
2022/01/23 14:04:46;;;;;;;;;32.25;26.00;;;;;8.34;100.00;103054.69;5018215;28;46494;-79
2022/01/23 14:07:22;;;;;;;;;22.50;21.25;;;;;8.39;100.00;103054.19;5020875;28;45471;-78
2022/01/23 14:09:48;;;;;;;;;23.00;23.00;;;;;8.40;100.00;103059.50;5021216;28;45460;-79
2022/01/23 14:12:17;;;;;;;;;25.50;23.00;;;;;8.41;100.00;103050.97;5035752;28;45391;-79
2022/01/23 14:14:54;;;;;;;;;25.50;21.50;;;;;8.44;100.00;103047.75;5018503;28;46259;-78
2022/01/23 14:17:21;;;;;;;;;25.50;23.25;;;;;8.42;100.00;103036.38;5018894;28;45800;-79
2022/01/23 14:19:58;;;;;;;;;26.00;20.00;;;;;8.43;100.00;103036.50;5036676;28;45431;-78
2022/01/23 14:22:35;;;;;;;;;29.00;25.50;;;;;8.44;100.00;103030.59;5006523;28;45607;-78
2022/01/23 14:25:14;;;;;;;;;29.25;23.75;;;;;8.47;100.00;103038.66;5027016;28;45267;-78
2022/01/23 14:27:42;;;;;;;;;28.25;26.75;;;;;8.48;100.00;103035.31;5035819;28;45826;-80
2022/01/23 14:30:14;;;;;;;;;27.75;25.50;;;;;8.52;100.00;103037.41;5036626;28;45449;-78
2022/01/23 14:32:48;;;;;;;;;25.00;22.25;;;;;8.52;100.00;103039.06;5028735;28;45191;-78